Time,TemperatureF,DewpointF,PressureIn,WindDirection,WindDirectionDegrees,WindSpeedMPH,WindSpeedGustMPH,Humidity,HourlyPrecipIn,Conditions,Clouds,dailyrainin,SolarRadiationWatts/m^2,SoftwareType,DateUTC
2013-01-20 00:12:00,8.0,-6.0,-100.00,WNW,293,21.0,37.0,53,0.00,,,0.00,0.000000,,2013-01-20 06:12:00,
2013-01-20 00:22:00,8.0,-6.0,-100.00,WNW,293,21.0,37.0,53,0.00,,,0.00,0.000000,,2013-01-20 06:22:00,
2013-01-20 00:33:00,8.0,-6.0,-100.00,WNW,293,21.0,37.0,53,0.00,,,0.00,0.000000,,2013-01-20 06:33:00,
2013-01-20 00:42:00,8.0,-6.0,-100.00,WNW,293,21.0,37.0,53,0.00,,,0.00,0.000000,,2013-01-20 06:42:00,
2013-01-20 01:12:00,7.0,-6.0,-100.00,WNW,297,18.0,32.0,54,0.00,,,0.00,0.000000,,2013-01-20 07:12:00,
2013-01-20 01:22:00,7.0,-6.0,-100.00,WNW,297,18.0,32.0,54,0.00,,,0.00,0.000000,,2013-01-20 07:22:00,
2013-01-20 01:32:00,7.0,-6.0,-100.00,WNW,297,18.0,32.0,54,0.00,,,0.00,0.000000,,2013-01-20 07:32:00,
2013-01-20 01:42:00,7.0,-6.0,-100.00,WNW,297,18.0,32.0,54,0.00,,,0.00,0.000000,,2013-01-20 07:42:00,
2013-01-20 02:12:00,6.0,-6.0,-100.00,WNW,288,14.0,27.0,58,0.00,,,0.00,0.000000,,2013-01-20 08:12:00,
2013-01-20 02:22:00,6.0,-6.0,-100.00,WNW,288,14.0,27.0,58,0.00,,,0.00,0.000000,,2013-01-20 08:22:00,
2013-01-20 02:32:00,6.0,-6.0,-100.00,WNW,288,14.0,27.0,58,0.00,,,0.00,0.000000,,2013-01-20 08:32:00,
2013-01-20 02:42:00,6.0,-6.0,-100.00,WNW,288,14.0,27.0,58,0.00,,,0.00,0.000000,,2013-01-20 08:42:00,
2013-01-20 03:12:00,5.0,-6.0,-100.00,WNW,295,14.0,25.0,60,0.00,,,0.00,0.000000,,2013-01-20 09:12:00,
2013-01-20 03:22:00,5.0,-6.0,-100.00,WNW,295,14.0,25.0,60,0.00,,,0.00,0.000000,,2013-01-20 09:22:00,
2013-01-20 03:33:00,5.0,-6.0,-100.00,WNW,295,14.0,25.0,60,0.00,,,0.00,0.000000,,2013-01-20 09:33:00,
2013-01-20 03:42:00,5.0,-6.0,-100.00,WNW,295,14.0,25.0,60,0.00,,,0.00,0.000000,,2013-01-20 09:42:00,
2013-01-20 04:12:00,5.0,-5.0,-100.00,WNW,285,12.0,24.0,61,0.00,,,0.00,0.000000,,2013-01-20 10:12:00,
2013-01-20 04:22:00,5.0,-5.0,-100.00,WNW,285,12.0,24.0,61,0.00,,,0.00,0.000000,,2013-01-20 10:22:00,
2013-01-20 04:32:00,5.0,-5.0,-100.00,WNW,285,12.0,24.0,61,0.00,,,0.00,0.000000,,2013-01-20 10:32:00,
2013-01-20 04:42:00,5.0,-5.0,-100.00,WNW,285,12.0,24.0,61,0.00,,,0.00,0.000000,,2013-01-20 10:42:00,
2013-01-20 05:12:00,4.0,-6.0,-100.00,WNW,292,12.0,21.0,62,0.00,,,0.00,0.000000,,2013-01-20 11:12:00,
2013-01-20 05:22:00,4.0,-6.0,-100.00,WNW,292,12.0,21.0,62,0.00,,,0.00,0.000000,,2013-01-20 11:22:00,
2013-01-20 05:33:00,4.0,-6.0,-100.00,WNW,292,12.0,21.0,62,0.00,,,0.00,0.000000,,2013-01-20 11:33:00,
2013-01-20 05:42:00,4.0,-6.0,-100.00,WNW,292,12.0,21.0,62,0.00,,,0.00,0.000000,,2013-01-20 11:42:00,
2013-01-20 06:12:00,4.0,-6.0,-100.00,WNW,290,11.0,21.0,62,0.00,,,0.00,0.000000,,2013-01-20 12:12:00,
2013-01-20 06:23:00,4.0,-6.0,-100.00,WNW,290,11.0,21.0,62,0.00,,,0.00,0.000000,,2013-01-20 12:23:00,
2013-01-20 06:33:00,4.0,-6.0,-100.00,WNW,290,11.0,21.0,62,0.00,,,0.00,0.000000,,2013-01-20 12:33:00,
2013-01-20 06:43:00,4.0,-6.0,-100.00,WNW,290,11.0,21.0,62,0.00,,,0.00,0.000000,,2013-01-20 12:43:00,
2013-01-20 07:12:00,3.0,-7.0,-100.00,WNW,294,12.0,21.0,63,0.00,,,0.00,0.000000,,2013-01-20 13:12:00,
2013-01-20 07:23:00,3.0,-7.0,-100.00,WNW,294,12.0,21.0,63,0.00,,,0.00,0.000000,,2013-01-20 13:23:00,
2013-01-20 07:33:00,3.0,-7.0,-100.00,WNW,294,12.0,21.0,63,0.00,,,0.00,0.000000,,2013-01-20 13:33:00,
2013-01-20 07:43:00,3.0,-7.0,-100.00,WNW,294,12.0,21.0,63,0.00,,,0.00,0.000000,,2013-01-20 13:43:00,
2013-01-20 08:12:00,3.0,-6.0,-100.00,WNW,298,10.0,20.0,64,0.00,,,0.00,4.000000,,2013-01-20 14:12:00,
2013-01-20 08:23:00,3.0,-6.0,-100.00,WNW,298,10.0,20.0,64,0.00,,,0.00,4.000000,,2013-01-20 14:23:00,
2013-01-20 08:33:00,3.0,-6.0,-100.00,WNW,298,10.0,20.0,64,0.00,,,0.00,4.000000,,2013-01-20 14:33:00,
2013-01-20 08:43:00,3.0,-6.0,-100.00,WNW,298,10.0,20.0,64,0.00,,,0.00,4.000000,,2013-01-20 14:43:00,
2013-01-20 09:12:00,3.0,-7.0,-100.00,NW,304,9.0,20.0,63,0.00,,,0.00,38.000000,,2013-01-20 15:12:00,
2013-01-20 09:23:00,3.0,-7.0,-100.00,NW,304,9.0,20.0,63,0.00,,,0.00,38.000000,,2013-01-20 15:23:00,
2013-01-20 09:33:00,3.0,-7.0,-100.00,NW,304,9.0,20.0,63,0.00,,,0.00,38.000000,,2013-01-20 15:33:00,
2013-01-20 09:42:00,3.0,-7.0,-100.00,NW,304,9.0,20.0,63,0.00,,,0.00,38.000000,,2013-01-20 15:42:00,
2013-01-20 10:12:00,6.0,-6.0,-100.00,WNW,295,10.0,18.0,56,0.00,,,0.00,185.000000,,2013-01-20 16:12:00,
2013-01-20 10:23:00,6.0,-6.0,-100.00,WNW,295,10.0,18.0,56,0.00,,,0.00,185.000000,,2013-01-20 16:23:00,
2013-01-20 10:33:00,6.0,-6.0,-100.00,WNW,295,10.0,18.0,56,0.00,,,0.00,185.000000,,2013-01-20 16:33:00,
2013-01-20 10:43:00,6.0,-6.0,-100.00,WNW,295,10.0,18.0,56,0.00,,,0.00,185.000000,,2013-01-20 16:43:00,
2013-01-20 11:13:00,7.0,-6.0,-100.00,WNW,299,11.0,16.0,53,0.00,,,0.00,256.000000,,2013-01-20 17:13:00,
2013-01-20 11:22:00,7.0,-6.0,-100.00,WNW,299,11.0,16.0,53,0.00,,,0.00,256.000000,,2013-01-20 17:22:00,
2013-01-20 11:33:00,7.0,-6.0,-100.00,WNW,299,11.0,16.0,53,0.00,,,0.00,256.000000,,2013-01-20 17:33:00,
2013-01-20 11:42:00,7.0,-6.0,-100.00,WNW,299,11.0,16.0,53,0.00,,,0.00,256.000000,,2013-01-20 17:42:00,
2013-01-20 12:13:00,9.0,-7.0,-100.00,West,281,10.0,18.0,47,0.00,,,0.00,361.000000,,2013-01-20 18:13:00,
2013-01-20 12:23:00,9.0,-7.0,-100.00,West,281,10.0,18.0,47,0.00,,,0.00,361.000000,,2013-01-20 18:23:00,
2013-01-20 12:33:00,9.0,-7.0,-100.00,West,281,10.0,18.0,47,0.00,,,0.00,361.000000,,2013-01-20 18:33:00,
2013-01-20 12:43:00,9.0,-7.0,-100.00,West,281,10.0,18.0,47,0.00,,,0.00,361.000000,,2013-01-20 18:43:00,
2013-01-20 13:12:00,12.0,-7.0,-100.00,WNW,303,11.0,18.0,41,0.00,,,0.00,406.000000,,2013-01-20 19:12:00,
2013-01-20 13:22:00,12.0,-7.0,-100.00,WNW,303,11.0,18.0,41,0.00,,,0.00,406.000000,,2013-01-20 19:22:00,
2013-01-20 13:33:00,12.0,-7.0,-100.00,WNW,303,11.0,18.0,41,0.00,,,0.00,406.000000,,2013-01-20 19:33:00,
2013-01-20 13:43:00,12.0,-7.0,-100.00,WNW,303,11.0,18.0,41,0.00,,,0.00,406.000000,,2013-01-20 19:43:00,
2013-01-20 14:12:00,13.0,-9.0,-100.00,WNW,292,12.0,24.0,36,0.00,,,0.00,407.000000,,2013-01-20 20:12:00,
2013-01-20 14:23:00,13.0,-9.0,-100.00,WNW,292,12.0,24.0,36,0.00,,,0.00,407.000000,,2013-01-20 20:23:00,
2013-01-20 14:33:00,13.0,-9.0,-100.00,WNW,292,12.0,24.0,36,0.00,,,0.00,407.000000,,2013-01-20 20:33:00,
2013-01-20 14:42:00,13.0,-9.0,-100.00,WNW,292,12.0,24.0,36,0.00,,,0.00,407.000000,,2013-01-20 20:42:00,
2013-01-20 15:13:00,13.0,-9.0,-100.00,WNW,286,12.0,21.0,35,0.00,,,0.00,289.000000,,2013-01-20 21:13:00,
2013-01-20 15:23:00,13.0,-9.0,-100.00,WNW,286,12.0,21.0,35,0.00,,,0.00,289.000000,,2013-01-20 21:23:00,
2013-01-20 15:33:00,13.0,-9.0,-100.00,WNW,286,12.0,21.0,35,0.00,,,0.00,289.000000,,2013-01-20 21:33:00,
2013-01-20 15:43:00,13.0,-9.0,-100.00,WNW,286,12.0,21.0,35,0.00,,,0.00,289.000000,,2013-01-20 21:43:00,
2013-01-20 16:13:00,13.0,-9.0,-100.00,WNW,290,12.0,24.0,35,0.00,,,0.00,213.000000,,2013-01-20 22:13:00,
2013-01-20 16:23:00,13.0,-9.0,-100.00,WNW,290,12.0,24.0,35,0.00,,,0.00,213.000000,,2013-01-20 22:23:00,
2013-01-20 16:33:00,13.0,-9.0,-100.00,WNW,290,12.0,24.0,35,0.00,,,0.00,213.000000,,2013-01-20 22:33:00,
2013-01-20 16:43:00,13.0,-9.0,-100.00,WNW,290,12.0,24.0,35,0.00,,,0.00,213.000000,,2013-01-20 22:43:00,
2013-01-20 17:13:00,10.0,-9.0,-100.00,WNW,301,10.0,18.0,40,0.00,,,0.00,41.000000,,2013-01-20 23:13:00,
2013-01-20 17:23:00,10.0,-9.0,-100.00,WNW,301,10.0,18.0,40,0.00,,,0.00,41.000000,,2013-01-20 23:23:00,
2013-01-20 17:33:00,10.0,-9.0,-100.00,WNW,301,10.0,18.0,40,0.00,,,0.00,41.000000,,2013-01-20 23:33:00,
2013-01-20 17:43:00,10.0,-9.0,-100.00,WNW,301,10.0,18.0,40,0.00,,,0.00,41.000000,,2013-01-20 23:43:00,
2013-01-20 18:13:00,8.0,-9.0,-100.00,WNW,284,5.0,14.0,45,0.00,,,0.00,2.000000,,2013-01-21 00:13:00,
2013-01-20 18:23:00,8.0,-9.0,-100.00,WNW,284,5.0,14.0,45,0.00,,,0.00,2.000000,,2013-01-21 00:23:00,
2013-01-20 18:33:00,8.0,-9.0,-100.00,WNW,284,5.0,14.0,45,0.00,,,0.00,2.000000,,2013-01-21 00:33:00,
2013-01-20 18:43:00,8.0,-9.0,-100.00,WNW,284,5.0,14.0,45,0.00,,,0.00,2.000000,,2013-01-21 00:43:00,
2013-01-20 19:13:00,6.0,-7.0,-100.00,NW,306,0.0,6.0,55,0.00,,,0.00,0.000000,,2013-01-21 01:13:00,
2013-01-20 19:23:00,6.0,-7.0,-100.00,NW,306,0.0,6.0,55,0.00,,,0.00,0.000000,,2013-01-21 01:23:00,
2013-01-20 19:33:00,6.0,-7.0,-100.00,NW,306,0.0,6.0,55,0.00,,,0.00,0.000000,,2013-01-21 01:33:00,
2013-01-20 19:43:00,6.0,-7.0,-100.00,NW,306,0.0,6.0,55,0.00,,,0.00,0.000000,,2013-01-21 01:43:00,
2013-01-20 20:12:00,6.0,-8.0,-100.00,WNW,288,4.0,6.0,52,0.00,,,0.00,0.000000,,2013-01-21 02:12:00,
2013-01-20 20:23:00,6.0,-8.0,-100.00,WNW,288,4.0,6.0,52,0.00,,,0.00,0.000000,,2013-01-21 02:23:00,
2013-01-20 20:33:00,6.0,-8.0,-100.00,WNW,288,4.0,6.0,52,0.00,,,0.00,0.000000,,2013-01-21 02:33:00,
2013-01-20 20:43:00,6.0,-8.0,-100.00,WNW,288,4.0,6.0,52,0.00,,,0.00,0.000000,,2013-01-21 02:43:00,
2013-01-20 21:13:00,7.0,-6.0,-100.00,NW,307,5.0,8.0,54,0.00,,,0.00,0.000000,,2013-01-21 03:13:00,
2013-01-20 21:23:00,7.0,-6.0,-100.00,NW,307,5.0,8.0,54,0.00,,,0.00,0.000000,,2013-01-21 03:23:00,
2013-01-20 21:33:00,7.0,-6.0,-100.00,NW,307,5.0,8.0,54,0.00,,,0.00,0.000000,,2013-01-21 03:33:00,
2013-01-20 21:43:00,7.0,-6.0,-100.00,NW,307,5.0,8.0,54,0.00,,,0.00,0.000000,,2013-01-21 03:43:00,
2013-01-20 22:12:00,7.0,-5.0,-100.00,NW,307,6.0,10.0,56,0.00,,,0.00,0.000000,,2013-01-21 04:12:00,
2013-01-20 22:23:00,7.0,-5.0,-100.00,NW,307,6.0,10.0,56,0.00,,,0.00,0.000000,,2013-01-21 04:23:00,
2013-01-20 22:33:00,7.0,-5.0,-100.00,NW,307,6.0,10.0,56,0.00,,,0.00,0.000000,,2013-01-21 04:33:00,
2013-01-20 22:42:00,7.0,-5.0,-100.00,NW,307,6.0,10.0,56,0.00,,,0.00,0.000000,,2013-01-21 04:42:00,
2013-01-20 23:12:00,7.0,-3.0,-100.00,WNW,296,7.0,12.0,63,0.00,,,0.00,0.000000,,2013-01-21 05:12:00,
2013-01-20 23:22:00,7.0,-3.0,-100.00,WNW,296,7.0,12.0,63,0.00,,,0.00,0.000000,,2013-01-21 05:22:00,
2013-01-20 23:34:00,7.0,-3.0,-100.00,WNW,296,7.0,12.0,63,0.00,,,0.00,0.000000,,2013-01-21 05:34:00,
2013-01-20 23:42:00,7.0,-3.0,-100.00,WNW,296,7.0,12.0,63,0.00,,,0.00,0.000000,,2013-01-21 05:42:00,